sensor_id;sensor_type;location;lat;lon;timestamp;P1;durP1;ratioP1;P2;durP2;ratioP2
22435;SDS011;11385;50.822;4.324;2022-12-07T00:01:21;20.80;;;14.53;;
22435;SDS011;11385;50.822;4.324;2022-12-07T00:03:50;24.47;;;14.95;;
22435;SDS011;11385;50.822;4.324;2022-12-07T00:06:19;21.87;;;15.32;;
22435;SDS011;11385;50.822;4.324;2022-12-07T00:08:46;20.85;;;14.50;;
22435;SDS011;11385;50.822;4.324;2022-12-07T00:11:15;22.45;;;15.30;;
22435;SDS011;11385;50.822;4.324;2022-12-07T00:13:44;23.00;;;15.88;;
22435;SDS011;11385;50.822;4.324;2022-12-07T00:16:15;23.25;;;15.93;;
22435;SDS011;11385;50.822;4.324;2022-12-07T00:18:44;20.35;;;14.28;;
22435;SDS011;11385;50.822;4.324;2022-12-07T00:21:12;24.77;;;16.57;;
22435;SDS011;11385;50.822;4.324;2022-12-07T00:23:42;23.77;;;16.10;;
22435;SDS011;11385;50.822;4.324;2022-12-07T00:26:17;24.77;;;16.17;;
22435;SDS011;11385;50.822;4.324;2022-12-07T00:28:47;24.77;;;16.12;;
22435;SDS011;11385;50.822;4.324;2022-12-07T00:31:15;24.98;;;15.95;;
22435;SDS011;11385;50.822;4.324;2022-12-07T00:33:43;24.05;;;15.85;;
22435;SDS011;11385;50.822;4.324;2022-12-07T00:36:11;24.35;;;15.70;;
22435;SDS011;11385;50.822;4.324;2022-12-07T00:38:40;23.05;;;15.85;;
22435;SDS011;11385;50.822;4.324;2022-12-07T00:41:11;20.70;;;14.80;;
22435;SDS011;11385;50.822;4.324;2022-12-07T00:43:39;23.05;;;15.83;;
22435;SDS011;11385;50.822;4.324;2022-12-07T00:46:07;23.02;;;15.10;;
22435;SDS011;11385;50.822;4.324;2022-12-07T00:48:34;22.93;;;15.90;;
22435;SDS011;11385;50.822;4.324;2022-12-07T00:51:01;24.67;;;15.03;;
22435;SDS011;11385;50.822;4.324;2022-12-07T00:53:28;23.92;;;15.90;;
22435;SDS011;11385;50.822;4.324;2022-12-07T00:55:55;23.35;;;15.98;;
22435;SDS011;11385;50.822;4.324;2022-12-07T00:58:22;25.32;;;16.48;;
22435;SDS011;11385;50.822;4.324;2022-12-07T01:00:49;22.87;;;16.02;;
22435;SDS011;11385;50.822;4.324;2022-12-07T01:03:16;22.77;;;15.78;;
22435;SDS011;11385;50.822;4.324;2022-12-07T01:05:49;22.22;;;15.53;;
22435;SDS011;11385;50.822;4.324;2022-12-07T01:08:17;21.02;;;15.58;;
22435;SDS011;11385;50.822;4.324;2022-12-07T01:10:44;21.37;;;15.10;;
22435;SDS011;11385;50.822;4.324;2022-12-07T01:13:10;20.55;;;15.13;;
22435;SDS011;11385;50.822;4.324;2022-12-07T01:15:39;25.32;;;16.15;;
22435;SDS011;11385;50.822;4.324;2022-12-07T01:18:09;22.60;;;16.15;;
22435;SDS011;11385;50.822;4.324;2022-12-07T01:20:35;23.92;;;15.88;;
22435;SDS011;11385;50.822;4.324;2022-12-07T01:23:02;19.52;;;15.40;;
22435;SDS011;11385;50.822;4.324;2022-12-07T01:25:29;25.65;;;16.17;;
22435;SDS011;11385;50.822;4.324;2022-12-07T01:27:55;23.42;;;15.25;;
22435;SDS011;11385;50.822;4.324;2022-12-07T01:30:22;21.40;;;14.90;;
22435;SDS011;11385;50.822;4.324;2022-12-07T01:32:49;26.15;;;16.07;;
22435;SDS011;11385;50.822;4.324;2022-12-07T01:35:16;22.32;;;15.68;;
22435;SDS011;11385;50.822;4.324;2022-12-07T01:37:43;25.62;;;15.38;;
22435;SDS011;11385;50.822;4.324;2022-12-07T01:40:09;19.73;;;15.68;;
22435;SDS011;11385;50.822;4.324;2022-12-07T01:42:37;24.40;;;15.60;;
22435;SDS011;11385;50.822;4.324;2022-12-07T01:47:42;20.48;;;15.10;;
22435;SDS011;11385;50.822;4.324;2022-12-07T01:50:12;23.15;;;15.25;;
22435;SDS011;11385;50.822;4.324;2022-12-07T01:52:39;20.82;;;15.32;;
22435;SDS011;11385;50.822;4.324;2022-12-07T01:55:09;19.92;;;15.55;;
22435;SDS011;11385;50.822;4.324;2022-12-07T01:57:39;20.00;;;14.25;;
22435;SDS011;11385;50.822;4.324;2022-12-07T02:00:09;22.85;;;14.50;;
22435;SDS011;11385;50.822;4.324;2022-12-07T02:02:38;23.87;;;14.45;;
22435;SDS011;11385;50.822;4.324;2022-12-07T02:05:07;24.43;;;15.48;;
22435;SDS011;11385;50.822;4.324;2022-12-07T02:07:34;21.85;;;15.23;;
22435;SDS011;11385;50.822;4.324;2022-12-07T02:12:41;22.17;;;15.30;;
22435;SDS011;11385;50.822;4.324;2022-12-07T02:15:10;23.67;;;15.28;;
22435;SDS011;11385;50.822;4.324;2022-12-07T02:17:43;20.32;;;15.48;;
22435;SDS011;11385;50.822;4.324;2022-12-07T02:20:30;20.52;;;15.00;;
22435;SDS011;11385;50.822;4.324;2022-12-07T02:23:10;25.10;;;15.30;;
22435;SDS011;11385;50.822;4.324;2022-12-07T02:28:28;26.65;;;15.03;;
22435;SDS011;11385;50.822;4.324;2022-12-07T02:30:58;20.80;;;15.15;;
22435;SDS011;11385;50.822;4.324;2022-12-07T02:36:29;24.60;;;14.47;;
22435;SDS011;11385;50.822;4.324;2022-12-07T02:38:46;20.80;;;14.83;;
22435;SDS011;11385;50.822;4.324;2022-12-07T02:41:18;24.02;;;15.85;;
22435;SDS011;11385;50.822;4.324;2022-12-07T02:43:51;21.33;;;15.95;;
22435;SDS011;11385;50.822;4.324;2022-12-07T02:46:22;22.45;;;15.78;;
22435;SDS011;11385;50.822;4.324;2022-12-07T02:48:52;25.13;;;17.20;;
22435;SDS011;11385;50.822;4.324;2022-12-07T02:51:21;25.00;;;15.75;;
22435;SDS011;11385;50.822;4.324;2022-12-07T02:53:48;21.15;;;15.25;;
22435;SDS011;11385;50.822;4.324;2022-12-07T02:56:24;23.75;;;15.43;;
22435;SDS011;11385;50.822;4.324;2022-12-07T02:59:27;25.77;;;15.85;;
22435;SDS011;11385;50.822;4.324;2022-12-07T03:01:51;21.90;;;15.88;;
22435;SDS011;11385;50.822;4.324;2022-12-07T03:04:36;25.75;;;16.45;;
22435;SDS011;11385;50.822;4.324;2022-12-07T03:09:52;26.17;;;16.40;;
22435;SDS011;11385;50.822;4.324;2022-12-07T03:12:25;25.05;;;15.32;;
22435;SDS011;11385;50.822;4.324;2022-12-07T03:14:57;22.62;;;15.30;;
22435;SDS011;11385;50.822;4.324;2022-12-07T03:17:28;23.30;;;15.58;;
22435;SDS011;11385;50.822;4.324;2022-12-07T03:19:58;21.93;;;15.00;;
22435;SDS011;11385;50.822;4.324;2022-12-07T03:22:27;23.25;;;15.95;;
22435;SDS011;11385;50.822;4.324;2022-12-07T03:24:58;16.67;;;12.27;;
22435;SDS011;11385;50.822;4.324;2022-12-07T03:27:28;20.88;;;15.68;;
22435;SDS011;11385;50.822;4.324;2022-12-07T03:32:34;21.68;;;15.20;;
22435;SDS011;11385;50.822;4.324;2022-12-07T03:35:07;24.65;;;16.07;;
22435;SDS011;11385;50.822;4.324;2022-12-07T03:37:45;21.90;;;15.18;;
22435;SDS011;11385;50.822;4.324;2022-12-07T03:42:49;21.93;;;15.60;;
22435;SDS011;11385;50.822;4.324;2022-12-07T03:45:17;23.12;;;15.80;;
22435;SDS011;11385;50.822;4.324;2022-12-07T03:47:47;24.82;;;15.38;;
22435;SDS011;11385;50.822;4.324;2022-12-07T03:50:34;21.70;;;14.95;;
22435;SDS011;11385;50.822;4.324;2022-12-07T03:53:22;24.25;;;15.48;;
22435;SDS011;11385;50.822;4.324;2022-12-07T03:55:52;22.07;;;14.90;;
22435;SDS011;11385;50.822;4.324;2022-12-07T03:58:21;19.65;;;14.68;;
22435;SDS011;11385;50.822;4.324;2022-12-07T04:00:49;21.17;;;14.80;;
22435;SDS011;11385;50.822;4.324;2022-12-07T04:03:16;22.37;;;15.00;;
22435;SDS011;11385;50.822;4.324;2022-12-07T04:05:43;19.87;;;14.47;;
22435;SDS011;11385;50.822;4.324;2022-12-07T04:08:11;24.27;;;16.10;;
22435;SDS011;11385;50.822;4.324;2022-12-07T04:10:37;20.97;;;14.83;;
22435;SDS011;11385;50.822;4.324;2022-12-07T04:13:04;21.25;;;15.45;;
22435;SDS011;11385;50.822;4.324;2022-12-07T04:15:31;21.90;;;15.20;;
22435;SDS011;11385;50.822;4.324;2022-12-07T04:17:58;24.57;;;16.07;;
22435;SDS011;11385;50.822;4.324;2022-12-07T04:20:24;24.05;;;15.28;;
22435;SDS011;11385;50.822;4.324;2022-12-07T04:22:51;24.82;;;16.52;;
22435;SDS011;11385;50.822;4.324;2022-12-07T04:25:18;24.12;;;15.88;;
22435;SDS011;11385;50.822;4.324;2022-12-07T04:27:44;22.98;;;15.53;;
22435;SDS011;11385;50.822;4.324;2022-12-07T04:30:11;21.37;;;15.80;;
22435;SDS011;11385;50.822;4.324;2022-12-07T04:32:38;27.58;;;16.93;;
22435;SDS011;11385;50.822;4.324;2022-12-07T04:35:04;25.02;;;16.55;;
22435;SDS011;11385;50.822;4.324;2022-12-07T04:37:31;29.63;;;17.52;;
22435;SDS011;11385;50.822;4.324;2022-12-07T04:39:58;21.57;;;16.87;;
22435;SDS011;11385;50.822;4.324;2022-12-07T04:42:25;22.40;;;16.17;;
22435;SDS011;11385;50.822;4.324;2022-12-07T04:44:51;23.02;;;17.20;;
22435;SDS011;11385;50.822;4.324;2022-12-07T04:47:18;26.25;;;17.07;;
22435;SDS011;11385;50.822;4.324;2022-12-07T04:49:45;22.62;;;15.38;;
22435;SDS011;11385;50.822;4.324;2022-12-07T04:52:11;27.27;;;16.97;;
22435;SDS011;11385;50.822;4.324;2022-12-07T04:54:38;29.42;;;17.25;;
22435;SDS011;11385;50.822;4.324;2022-12-07T04:57:05;21.20;;;15.85;;
22435;SDS011;11385;50.822;4.324;2022-12-07T04:59:31;21.57;;;15.35;;
22435;SDS011;11385;50.822;4.324;2022-12-07T05:01:58;21.85;;;15.28;;
22435;SDS011;11385;50.822;4.324;2022-12-07T05:04:25;21.33;;;15.38;;
22435;SDS011;11385;50.822;4.324;2022-12-07T05:06:51;19.60;;;15.00;;
22435;SDS011;11385;50.822;4.324;2022-12-07T05:09:18;20.00;;;15.78;;
22435;SDS011;11385;50.822;4.324;2022-12-07T05:11:45;20.88;;;15.38;;
22435;SDS011;11385;50.822;4.324;2022-12-07T05:14:15;25.02;;;15.75;;
22435;SDS011;11385;50.822;4.324;2022-12-07T05:16:43;21.20;;;14.93;;
22435;SDS011;11385;50.822;4.324;2022-12-07T05:19:11;21.12;;;15.00;;
22435;SDS011;11385;50.822;4.324;2022-12-07T05:21:38;20.37;;;15.48;;
22435;SDS011;11385;50.822;4.324;2022-12-07T05:24:06;23.57;;;15.40;;
22435;SDS011;11385;50.822;4.324;2022-12-07T05:26:33;25.77;;;16.95;;
22435;SDS011;11385;50.822;4.324;2022-12-07T05:29:00;21.77;;;16.40;;
22435;SDS011;11385;50.822;4.324;2022-12-07T05:31:27;22.80;;;16.30;;
22435;SDS011;11385;50.822;4.324;2022-12-07T05:33:54;27.05;;;17.23;;
22435;SDS011;11385;50.822;4.324;2022-12-07T05:36:21;21.85;;;16.40;;
22435;SDS011;11385;50.822;4.324;2022-12-07T05:38:48;23.00;;;15.70;;
22435;SDS011;11385;50.822;4.324;2022-12-07T05:41:16;24.63;;;15.88;;
22435;SDS011;11385;50.822;4.324;2022-12-07T05:43:49;22.77;;;16.10;;
22435;SDS011;11385;50.822;4.324;2022-12-07T05:46:16;25.02;;;16.40;;
22435;SDS011;11385;50.822;4.324;2022-12-07T05:48:42;25.25;;;17.30;;
22435;SDS011;11385;50.822;4.324;2022-12-07T05:51:09;24.55;;;15.75;;
22435;SDS011;11385;50.822;4.324;2022-12-07T05:53:36;24.07;;;15.72;;
22435;SDS011;11385;50.822;4.324;2022-12-07T05:56:02;23.05;;;16.45;;
22435;SDS011;11385;50.822;4.324;2022-12-07T05:58:29;20.72;;;14.98;;
22435;SDS011;11385;50.822;4.324;2022-12-07T06:01:01;22.02;;;15.88;;
22435;SDS011;11385;50.822;4.324;2022-12-07T06:03:28;26.05;;;15.83;;
22435;SDS011;11385;50.822;4.324;2022-12-07T06:05:55;23.75;;;15.88;;
22435;SDS011;11385;50.822;4.324;2022-12-07T06:08:21;21.90;;;14.38;;
22435;SDS011;11385;50.822;4.324;2022-12-07T06:10:48;25.85;;;16.00;;
22435;SDS011;11385;50.822;4.324;2022-12-07T06:13:16;22.75;;;14.87;;
22435;SDS011;11385;50.822;4.324;2022-12-07T06:15:43;20.35;;;15.18;;
22435;SDS011;11385;50.822;4.324;2022-12-07T06:18:10;25.02;;;15.30;;
22435;SDS011;11385;50.822;4.324;2022-12-07T06:20:36;21.00;;;14.75;;
22435;SDS011;11385;50.822;4.324;2022-12-07T06:23:03;24.85;;;15.05;;
22435;SDS011;11385;50.822;4.324;2022-12-07T06:25:29;21.93;;;14.95;;
22435;SDS011;11385;50.822;4.324;2022-12-07T06:27:56;20.97;;;15.35;;
22435;SDS011;11385;50.822;4.324;2022-12-07T06:30:22;25.25;;;15.53;;
22435;SDS011;11385;50.822;4.324;2022-12-07T06:32:49;22.52;;;15.65;;
22435;SDS011;11385;50.822;4.324;2022-12-07T06:35:16;22.45;;;15.43;;
22435;SDS011;11385;50.822;4.324;2022-12-07T06:37:42;22.50;;;15.25;;
22435;SDS011;11385;50.822;4.324;2022-12-07T06:40:09;30.05;;;23.35;;
22435;SDS011;11385;50.822;4.324;2022-12-07T06:42:36;22.80;;;17.15;;
22435;SDS011;11385;50.822;4.324;2022-12-07T06:45:02;22.40;;;15.98;;
22435;SDS011;11385;50.822;4.324;2022-12-07T06:47:29;21.82;;;14.83;;
22435;SDS011;11385;50.822;4.324;2022-12-07T06:49:56;24.00;;;15.45;;
22435;SDS011;11385;50.822;4.324;2022-12-07T06:52:22;24.80;;;14.75;;
22435;SDS011;11385;50.822;4.324;2022-12-07T06:54:49;21.48;;;15.43;;
22435;SDS011;11385;50.822;4.324;2022-12-07T06:57:15;23.02;;;15.68;;
22435;SDS011;11385;50.822;4.324;2022-12-07T06:59:42;26.20;;;15.75;;
22435;SDS011;11385;50.822;4.324;2022-12-07T07:02:09;26.25;;;16.07;;
22435;SDS011;11385;50.822;4.324;2022-12-07T07:04:36;22.70;;;15.13;;
22435;SDS011;11385;50.822;4.324;2022-12-07T07:07:02;20.65;;;14.68;;
22435;SDS011;11385;50.822;4.324;2022-12-07T07:09:29;20.55;;;14.05;;
22435;SDS011;11385;50.822;4.324;2022-12-07T07:11:56;19.48;;;14.20;;
22435;SDS011;11385;50.822;4.324;2022-12-07T07:14:22;20.57;;;13.93;;
22435;SDS011;11385;50.822;4.324;2022-12-07T07:16:49;18.65;;;13.60;;
22435;SDS011;11385;50.822;4.324;2022-12-07T07:19:16;20.92;;;13.38;;
22435;SDS011;11385;50.822;4.324;2022-12-07T07:21:42;25.80;;;15.30;;
22435;SDS011;11385;50.822;4.324;2022-12-07T07:24:09;21.52;;;14.70;;
22435;SDS011;11385;50.822;4.324;2022-12-07T07:26:36;27.73;;;15.32;;
22435;SDS011;11385;50.822;4.324;2022-12-07T07:29:02;23.45;;;15.05;;
22435;SDS011;11385;50.822;4.324;2022-12-07T07:31:29;24.82;;;15.60;;
22435;SDS011;11385;50.822;4.324;2022-12-07T07:33:56;19.75;;;14.75;;
22435;SDS011;11385;50.822;4.324;2022-12-07T07:36:22;22.48;;;15.30;;
22435;SDS011;11385;50.822;4.324;2022-12-07T07:38:49;21.90;;;13.43;;
22435;SDS011;11385;50.822;4.324;2022-12-07T07:41:15;20.72;;;14.87;;
22435;SDS011;11385;50.822;4.324;2022-12-07T07:43:42;29.80;;;14.90;;
22435;SDS011;11385;50.822;4.324;2022-12-07T07:46:09;22.70;;;14.25;;
22435;SDS011;11385;50.822;4.324;2022-12-07T07:48:36;23.87;;;15.32;;
22435;SDS011;11385;50.822;4.324;2022-12-07T07:51:05;24.43;;;14.63;;
22435;SDS011;11385;50.822;4.324;2022-12-07T07:53:32;23.80;;;14.03;;
22435;SDS011;11385;50.822;4.324;2022-12-07T07:55:59;20.35;;;14.10;;
22435;SDS011;11385;50.822;4.324;2022-12-07T07:58:26;18.65;;;13.98;;
22435;SDS011;11385;50.822;4.324;2022-12-07T08:00:53;21.07;;;13.95;;
22435;SDS011;11385;50.822;4.324;2022-12-07T08:03:20;26.27;;;14.43;;
22435;SDS011;11385;50.822;4.324;2022-12-07T08:05:47;20.37;;;14.63;;
22435;SDS011;11385;50.822;4.324;2022-12-07T08:08:13;22.52;;;15.18;;
22435;SDS011;11385;50.822;4.324;2022-12-07T08:10:40;26.40;;;16.23;;
22435;SDS011;11385;50.822;4.324;2022-12-07T08:13:07;23.67;;;15.72;;
22435;SDS011;11385;50.822;4.324;2022-12-07T08:15:37;22.90;;;16.25;;
22435;SDS011;11385;50.822;4.324;2022-12-07T08:18:05;21.85;;;16.12;;
22435;SDS011;11385;50.822;4.324;2022-12-07T08:20:33;22.95;;;15.58;;
22435;SDS011;11385;50.822;4.324;2022-12-07T08:23:02;24.77;;;15.75;;
22435;SDS011;11385;50.822;4.324;2022-12-07T08:25:28;20.20;;;15.20;;
22435;SDS011;11385;50.822;4.324;2022-12-07T08:27:55;26.55;;;15.65;;
22435;SDS011;11385;50.822;4.324;2022-12-07T08:30:22;21.77;;;16.73;;
22435;SDS011;11385;50.822;4.324;2022-12-07T08:32:49;29.25;;;17.23;;
22435;SDS011;11385;50.822;4.324;2022-12-07T08:35:16;26.42;;;16.45;;
22435;SDS011;11385;50.822;4.324;2022-12-07T08:37:43;25.65;;;16.95;;
22435;SDS011;11385;50.822;4.324;2022-12-07T08:40:10;31.37;;;16.87;;
22435;SDS011;11385;50.822;4.324;2022-12-07T08:42:40;28.17;;;16.23;;
22435;SDS011;11385;50.822;4.324;2022-12-07T08:45:10;66.45;;;43.98;;
22435;SDS011;11385;50.822;4.324;2022-12-07T08:47:40;31.73;;;18.27;;
22435;SDS011;11385;50.822;4.324;2022-12-07T08:50:10;28.45;;;17.05;;
22435;SDS011;11385;50.822;4.324;2022-12-07T08:52:38;30.70;;;16.67;;
22435;SDS011;11385;50.822;4.324;2022-12-07T08:55:07;23.02;;;16.48;;
22435;SDS011;11385;50.822;4.324;2022-12-07T08:57:36;24.20;;;14.33;;
22435;SDS011;11385;50.822;4.324;2022-12-07T09:00:04;19.12;;;13.53;;
22435;SDS011;11385;50.822;4.324;2022-12-07T09:02:32;18.20;;;12.80;;
22435;SDS011;11385;50.822;4.324;2022-12-07T09:04:59;19.15;;;13.15;;
22435;SDS011;11385;50.822;4.324;2022-12-07T09:07:25;21.95;;;13.32;;
22435;SDS011;11385;50.822;4.324;2022-12-07T09:09:53;20.15;;;12.60;;
22435;SDS011;11385;50.822;4.324;2022-12-07T09:12:19;21.57;;;13.60;;
22435;SDS011;11385;50.822;4.324;2022-12-07T09:14:46;20.55;;;13.62;;
22435;SDS011;11385;50.822;4.324;2022-12-07T09:17:13;25.57;;;12.88;;
22435;SDS011;11385;50.822;4.324;2022-12-07T09:19:39;22.75;;;13.55;;
22435;SDS011;11385;50.822;4.324;2022-12-07T09:22:08;22.42;;;12.93;;
22435;SDS011;11385;50.822;4.324;2022-12-07T09:24:34;21.75;;;13.85;;
22435;SDS011;11385;50.822;4.324;2022-12-07T09:27:01;22.50;;;13.88;;
22435;SDS011;11385;50.822;4.324;2022-12-07T09:29:28;21.42;;;13.15;;
22435;SDS011;11385;50.822;4.324;2022-12-07T09:31:54;20.15;;;12.07;;
22435;SDS011;11385;50.822;4.324;2022-12-07T09:34:21;28.05;;;13.38;;
22435;SDS011;11385;50.822;4.324;2022-12-07T09:36:48;19.35;;;11.78;;
22435;SDS011;11385;50.822;4.324;2022-12-07T09:39:14;15.68;;;9.80;;
22435;SDS011;11385;50.822;4.324;2022-12-07T09:41:41;18.80;;;10.93;;
22435;SDS011;11385;50.822;4.324;2022-12-07T09:44:12;17.52;;;10.53;;
22435;SDS011;11385;50.822;4.324;2022-12-07T09:46:42;17.98;;;10.78;;
22435;SDS011;11385;50.822;4.324;2022-12-07T09:49:12;13.75;;;9.58;;
22435;SDS011;11385;50.822;4.324;2022-12-07T09:51:43;19.55;;;10.98;;
22435;SDS011;11385;50.822;4.324;2022-12-07T09:54:12;25.85;;;17.80;;
22435;SDS011;11385;50.822;4.324;2022-12-07T09:56:42;43.28;;;29.10;;
22435;SDS011;11385;50.822;4.324;2022-12-07T09:59:12;17.48;;;9.85;;
22435;SDS011;11385;50.822;4.324;2022-12-07T10:01:40;14.93;;;9.17;;
22435;SDS011;11385;50.822;4.324;2022-12-07T10:04:10;14.47;;;9.40;;
22435;SDS011;11385;50.822;4.324;2022-12-07T10:06:39;16.27;;;9.03;;
22435;SDS011;11385;50.822;4.324;2022-12-07T10:09:09;17.67;;;9.80;;
22435;SDS011;11385;50.822;4.324;2022-12-07T10:14:18;16.23;;;8.95;;
22435;SDS011;11385;50.822;4.324;2022-12-07T10:16:46;17.17;;;10.43;;
22435;SDS011;11385;50.822;4.324;2022-12-07T10:24:26;16.32;;;10.53;;
22435;SDS011;11385;50.822;4.324;2022-12-07T10:26:53;16.20;;;9.30;;
22435;SDS011;11385;50.822;4.324;2022-12-07T10:29:21;17.23;;;9.78;;
22435;SDS011;11385;50.822;4.324;2022-12-07T10:31:54;14.63;;;9.23;;
22435;SDS011;11385;50.822;4.324;2022-12-07T10:34:24;15.48;;;10.08;;
22435;SDS011;11385;50.822;4.324;2022-12-07T10:37:26;14.50;;;9.25;;
22435;SDS011;11385;50.822;4.324;2022-12-07T10:39:47;15.10;;;8.70;;
22435;SDS011;11385;50.822;4.324;2022-12-07T10:42:20;12.78;;;8.53;;
22435;SDS011;11385;50.822;4.324;2022-12-07T10:44:49;16.45;;;8.88;;
22435;SDS011;11385;50.822;4.324;2022-12-07T10:47:36;15.35;;;8.53;;
22435;SDS011;11385;50.822;4.324;2022-12-07T10:52:58;19.37;;;9.90;;
22435;SDS011;11385;50.822;4.324;2022-12-07T10:55:37;18.02;;;9.25;;
22435;SDS011;11385;50.822;4.324;2022-12-07T10:58:15;44.77;;;30.70;;
22435;SDS011;11385;50.822;4.324;2022-12-07T11:00:44;34.65;;;22.90;;
22435;SDS011;11385;50.822;4.324;2022-12-07T11:03:21;19.47;;;10.50;;
22435;SDS011;11385;50.822;4.324;2022-12-07T11:06:04;15.43;;;7.87;;
22435;SDS011;11385;50.822;4.324;2022-12-07T11:08:37;10.25;;;6.03;;
22435;SDS011;11385;50.822;4.324;2022-12-07T11:11:19;11.90;;;5.97;;
22435;SDS011;11385;50.822;4.324;2022-12-07T11:13:56;15.40;;;6.03;;
22435;SDS011;11385;50.822;4.324;2022-12-07T11:17:03;20.90;;;11.83;;
22435;SDS011;11385;50.822;4.324;2022-12-07T11:19:35;11.48;;;6.10;;
22435;SDS011;11385;50.822;4.324;2022-12-07T11:22:44;10.45;;;4.80;;
22435;SDS011;11385;50.822;4.324;2022-12-07T11:24:57;9.65;;;4.60;;
22435;SDS011;11385;50.822;4.324;2022-12-07T11:27:41;11.97;;;4.45;;
22435;SDS011;11385;50.822;4.324;2022-12-07T11:30:14;9.38;;;4.00;;
22435;SDS011;11385;50.822;4.324;2022-12-07T11:33:22;11.78;;;4.62;;
22435;SDS011;11385;50.822;4.324;2022-12-07T11:35:44;13.80;;;4.20;;
22435;SDS011;11385;50.822;4.324;2022-12-07T11:38:36;5.37;;;3.00;;
22435;SDS011;11385;50.822;4.324;2022-12-07T11:41:04;9.30;;;4.72;;
22435;SDS011;11385;50.822;4.324;2022-12-07T11:43:39;12.18;;;4.95;;
22435;SDS011;11385;50.822;4.324;2022-12-07T11:46:27;13.32;;;4.97;;
22435;SDS011;11385;50.822;4.324;2022-12-07T11:49:02;11.03;;;4.77;;
22435;SDS011;11385;50.822;4.324;2022-12-07T11:51:29;10.82;;;4.92;;
22435;SDS011;11385;50.822;4.324;2022-12-07T11:54:03;11.33;;;5.20;;
22435;SDS011;11385;50.822;4.324;2022-12-07T11:56:34;11.10;;;4.37;;
22435;SDS011;11385;50.822;4.324;2022-12-07T11:59:08;10.78;;;5.35;;
22435;SDS011;11385;50.822;4.324;2022-12-07T12:02:13;7.85;;;3.95;;
22435;SDS011;11385;50.822;4.324;2022-12-07T12:07:20;12.33;;;4.20;;
22435;SDS011;11385;50.822;4.324;2022-12-07T12:09:50;8.80;;;4.50;;
22435;SDS011;11385;50.822;4.324;2022-12-07T12:15:16;9.65;;;3.37;;
22435;SDS011;11385;50.822;4.324;2022-12-07T12:23:29;7.08;;;2.92;;
22435;SDS011;11385;50.822;4.324;2022-12-07T12:26:13;8.20;;;3.05;;
22435;SDS011;11385;50.822;4.324;2022-12-07T12:28:52;9.18;;;4.22;;
22435;SDS011;11385;50.822;4.324;2022-12-07T12:31:32;8.25;;;2.72;;
22435;SDS011;11385;50.822;4.324;2022-12-07T12:34:03;3.98;;;2.20;;
22435;SDS011;11385;50.822;4.324;2022-12-07T12:39:14;7.53;;;3.95;;
22435;SDS011;11385;50.822;4.324;2022-12-07T12:41:53;7.72;;;4.67;;
22435;SDS011;11385;50.822;4.324;2022-12-07T12:44:39;6.22;;;2.20;;
22435;SDS011;11385;50.822;4.324;2022-12-07T12:50:10;8.55;;;2.40;;
22435;SDS011;11385;50.822;4.324;2022-12-07T12:52:47;10.35;;;2.67;;
22435;SDS011;11385;50.822;4.324;2022-12-07T12:55:17;10.40;;;3.27;;
22435;SDS011;11385;50.822;4.324;2022-12-07T12:57:47;9.55;;;3.42;;
22435;SDS011;11385;50.822;4.324;2022-12-07T13:00:21;8.68;;;3.25;;
22435;SDS011;11385;50.822;4.324;2022-12-07T13:02:49;6.87;;;2.25;;
22435;SDS011;11385;50.822;4.324;2022-12-07T13:05:20;7.40;;;2.87;;
22435;SDS011;11385;50.822;4.324;2022-12-07T13:07:50;10.82;;;2.92;;
22435;SDS011;11385;50.822;4.324;2022-12-07T13:10:25;9.90;;;2.75;;
22435;SDS011;11385;50.822;4.324;2022-12-07T13:15:53;6.28;;;3.20;;
22435;SDS011;11385;50.822;4.324;2022-12-07T13:18:25;12.55;;;4.70;;
22435;SDS011;11385;50.822;4.324;2022-12-07T13:24:07;8.80;;;2.75;;
22435;SDS011;11385;50.822;4.324;2022-12-07T13:26:42;10.73;;;3.17;;
22435;SDS011;11385;50.822;4.324;2022-12-07T13:29:12;6.75;;;3.40;;
22435;SDS011;11385;50.822;4.324;2022-12-07T13:31:47;8.08;;;3.40;;
22435;SDS011;11385;50.822;4.324;2022-12-07T13:36:55;6.65;;;3.08;;
22435;SDS011;11385;50.822;4.324;2022-12-07T13:39:23;7.75;;;3.37;;
22435;SDS011;11385;50.822;4.324;2022-12-07T13:41:53;10.70;;;3.83;;
22435;SDS011;11385;50.822;4.324;2022-12-07T13:44:22;7.22;;;3.02;;
22435;SDS011;11385;50.822;4.324;2022-12-07T13:47:06;10.25;;;3.90;;
22435;SDS011;11385;50.822;4.324;2022-12-07T13:49:48;10.82;;;3.83;;
22435;SDS011;11385;50.822;4.324;2022-12-07T13:52:18;10.50;;;3.35;;
22435;SDS011;11385;50.822;4.324;2022-12-07T13:54:48;10.18;;;3.20;;
22435;SDS011;11385;50.822;4.324;2022-12-07T13:57:33;51.48;;;34.08;;
22435;SDS011;11385;50.822;4.324;2022-12-07T14:00:03;8.05;;;3.37;;
22435;SDS011;11385;50.822;4.324;2022-12-07T14:02:33;6.28;;;2.50;;
22435;SDS011;11385;50.822;4.324;2022-12-07T14:05:07;9.15;;;2.70;;
22435;SDS011;11385;50.822;4.324;2022-12-07T14:10:24;6.80;;;3.15;;
22435;SDS011;11385;50.822;4.324;2022-12-07T14:12:53;5.60;;;2.77;;
22435;SDS011;11385;50.822;4.324;2022-12-07T14:15:21;7.45;;;2.85;;
22435;SDS011;11385;50.822;4.324;2022-12-07T14:17:53;6.22;;;2.42;;
22435;SDS011;11385;50.822;4.324;2022-12-07T14:22:55;5.53;;;3.05;;
22435;SDS011;11385;50.822;4.324;2022-12-07T14:25:24;12.60;;;3.37;;
22435;SDS011;11385;50.822;4.324;2022-12-07T14:27:56;10.43;;;3.12;;
22435;SDS011;11385;50.822;4.324;2022-12-07T14:30:27;9.25;;;3.37;;
22435;SDS011;11385;50.822;4.324;2022-12-07T14:35:25;14.68;;;3.40;;
22435;SDS011;11385;50.822;4.324;2022-12-07T14:37:52;6.28;;;2.20;;
22435;SDS011;11385;50.822;4.324;2022-12-07T14:40:20;4.80;;;1.25;;
22435;SDS011;11385;50.822;4.324;2022-12-07T14:42:50;5.30;;;1.25;;
22435;SDS011;11385;50.822;4.324;2022-12-07T14:45:20;4.92;;;1.42;;
22435;SDS011;11385;50.822;4.324;2022-12-07T14:47:48;4.92;;;1.32;;
22435;SDS011;11385;50.822;4.324;2022-12-07T14:50:16;4.00;;;1.62;;
22435;SDS011;11385;50.822;4.324;2022-12-07T14:52:49;5.80;;;1.77;;
22435;SDS011;11385;50.822;4.324;2022-12-07T14:55:25;6.37;;;1.75;;
22435;SDS011;11385;50.822;4.324;2022-12-07T14:57:54;3.40;;;1.47;;
22435;SDS011;11385;50.822;4.324;2022-12-07T15:00:22;8.70;;;2.00;;
22435;SDS011;11385;50.822;4.324;2022-12-07T15:02:50;9.85;;;2.17;;
22435;SDS011;11385;50.822;4.324;2022-12-07T15:05:17;5.10;;;2.20;;
22435;SDS011;11385;50.822;4.324;2022-12-07T15:07:45;7.22;;;1.95;;
22435;SDS011;11385;50.822;4.324;2022-12-07T15:10:18;5.65;;;2.60;;
22435;SDS011;11385;50.822;4.324;2022-12-07T15:12:46;5.65;;;2.40;;
22435;SDS011;11385;50.822;4.324;2022-12-07T15:15:13;7.25;;;2.70;;
22435;SDS011;11385;50.822;4.324;2022-12-07T15:17:40;6.45;;;3.10;;
22435;SDS011;11385;50.822;4.324;2022-12-07T15:20:10;6.22;;;2.40;;
22435;SDS011;11385;50.822;4.324;2022-12-07T15:22:39;7.30;;;3.10;;
22435;SDS011;11385;50.822;4.324;2022-12-07T15:25:06;5.80;;;2.70;;
22435;SDS011;11385;50.822;4.324;2022-12-07T15:27:33;8.60;;;2.58;;
22435;SDS011;11385;50.822;4.324;2022-12-07T15:29:59;8.88;;;3.30;;
22435;SDS011;11385;50.822;4.324;2022-12-07T15:32:28;7.00;;;2.52;;
22435;SDS011;11385;50.822;4.324;2022-12-07T15:34:54;9.55;;;3.58;;
22435;SDS011;11385;50.822;4.324;2022-12-07T15:37:21;6.83;;;3.12;;
22435;SDS011;11385;50.822;4.324;2022-12-07T15:39:48;11.05;;;3.83;;
22435;SDS011;11385;50.822;4.324;2022-12-07T15:42:14;10.70;;;3.65;;
22435;SDS011;11385;50.822;4.324;2022-12-07T15:44:41;8.58;;;4.05;;
22435;SDS011;11385;50.822;4.324;2022-12-07T15:47:13;6.08;;;3.42;;